Sacramento, California
Traffic Map
Current Weather Conditions
Sacramento, California
Clear
Clear
70°
Feels Like: 70°
Wind Chill: 70° Ceiling: Unl
Heat Index: 70° Visibility: 10mi
Dew Point: 53° Wind: 9mph
Humidity: 55% Direction: 210° (SSW)
Pressure: 29.81in Gusts: 18mph
Raw Report DataKSAC 190153Z AUTO 21008G16KT 10SM CLR 21/12 A2981 RMK AO2 SLP095 T02110117 TSNO
Traffic Incident Summary
Active as of:
Severity:
Category:
InformationThere was an issue retrieving the traffic information for this location. Please try a different location or try again shortly.
Advertisements
At Last! Intellicast now available for iPhone and Android